Aviation Digital Data Service (ADDS)

Output produced by METARs form (0725 UTC 22 August 2017)
found at http://aviationweather.gov/adds/metars/
 
KPBG 220539Z 2206/2306 VRB03KT P6SM FEW250 
     FM221400 16011KT P6SM FEW050 SCT150 
     FM221700 18014G24KT P6SM VCSH FEW035 SCT060 
     FM222000 20011KT P6SM SHRA VCTS SCT020 OVC030CB 
     FM230300 19009KT P6SM -SHRA SCT020 BKN030